sensor_id;sensor_type;location;lat;lon;timestamp;P1;durP1;ratioP1;P2;durP2;ratioP2
38725;SDS011;24474;48.906;8.808;2022-11-04T00:02:01;1.42;;;1.13;;
38725;SDS011;24474;48.906;8.808;2022-11-04T00:04:27;1.45;;;0.90;;
38725;SDS011;24474;48.906;8.808;2022-11-04T00:06:54;1.23;;;1.00;;
38725;SDS011;24474;48.906;8.808;2022-11-04T00:09:21;1.73;;;1.00;;
38725;SDS011;24474;48.906;8.808;2022-11-04T00:11:50;0.80;;;0.80;;
38725;SDS011;24474;48.906;8.808;2022-11-04T00:14:35;1.25;;;0.93;;
38725;SDS011;24474;48.906;8.808;2022-11-04T00:17:02;1.23;;;0.90;;
38725;SDS011;24474;48.906;8.808;2022-11-04T00:19:48;1.23;;;0.80;;
38725;SDS011;24474;48.906;8.808;2022-11-04T00:25:24;1.15;;;0.85;;
38725;SDS011;24474;48.906;8.808;2022-11-04T00:28:10;1.00;;;0.82;;
38725;SDS011;24474;48.906;8.808;2022-11-04T00:31:00;1.63;;;1.05;;
38725;SDS011;24474;48.906;8.808;2022-11-04T00:33:47;1.20;;;0.93;;
38725;SDS011;24474;48.906;8.808;2022-11-04T00:36:15;1.38;;;1.00;;
38725;SDS011;24474;48.906;8.808;2022-11-04T00:38:41;1.55;;;1.27;;
38725;SDS011;24474;48.906;8.808;2022-11-04T00:41:08;1.85;;;1.10;;
38725;SDS011;24474;48.906;8.808;2022-11-04T00:43:57;1.85;;;1.15;;
38725;SDS011;24474;48.906;8.808;2022-11-04T00:46:25;1.00;;;0.90;;
38725;SDS011;24474;48.906;8.808;2022-11-04T00:48:52;3.30;;;1.00;;
38725;SDS011;24474;48.906;8.808;2022-11-04T00:51:18;1.08;;;0.98;;
38725;SDS011;24474;48.906;8.808;2022-11-04T00:53:46;2.13;;;1.20;;
38725;SDS011;24474;48.906;8.808;2022-11-04T00:56:12;2.33;;;1.00;;
38725;SDS011;24474;48.906;8.808;2022-11-04T00:58:39;1.52;;;0.90;;
38725;SDS011;24474;48.906;8.808;2022-11-04T01:01:12;1.08;;;0.98;;
38725;SDS011;24474;48.906;8.808;2022-11-04T01:03:42;1.77;;;1.10;;
38725;SDS011;24474;48.906;8.808;2022-11-04T01:06:08;1.73;;;1.10;;
38725;SDS011;24474;48.906;8.808;2022-11-04T01:08:34;1.63;;;1.00;;
38725;SDS011;24474;48.906;8.808;2022-11-04T01:11:00;1.67;;;0.82;;
38725;SDS011;24474;48.906;8.808;2022-11-04T01:13:30;1.58;;;0.80;;
38725;SDS011;24474;48.906;8.808;2022-11-04T01:16:00;1.08;;;0.80;;
38725;SDS011;24474;48.906;8.808;2022-11-04T01:18:27;1.57;;;0.80;;
38725;SDS011;24474;48.906;8.808;2022-11-04T01:20:52;2.95;;;0.80;;
38725;SDS011;24474;48.906;8.808;2022-11-04T01:23:18;2.00;;;0.70;;
38725;SDS011;24474;48.906;8.808;2022-11-04T01:25:45;1.20;;;0.73;;
38725;SDS011;24474;48.906;8.808;2022-11-04T01:28:12;1.60;;;0.90;;
38725;SDS011;24474;48.906;8.808;2022-11-04T01:30:39;3.25;;;1.10;;
38725;SDS011;24474;48.906;8.808;2022-11-04T01:33:04;1.58;;;0.77;;
38725;SDS011;24474;48.906;8.808;2022-11-04T01:35:30;2.33;;;0.93;;
38725;SDS011;24474;48.906;8.808;2022-11-04T01:37:59;1.02;;;0.82;;
38725;SDS011;24474;48.906;8.808;2022-11-04T01:40:24;2.00;;;0.80;;
38725;SDS011;24474;48.906;8.808;2022-11-04T01:42:53;1.83;;;0.80;;
38725;SDS011;24474;48.906;8.808;2022-11-04T01:45:20;2.80;;;0.80;;
38725;SDS011;24474;48.906;8.808;2022-11-04T01:47:48;0.77;;;0.75;;
38725;SDS011;24474;48.906;8.808;2022-11-04T01:50:23;3.92;;;1.02;;
38725;SDS011;24474;48.906;8.808;2022-11-04T01:52:59;2.20;;;0.75;;
38725;SDS011;24474;48.906;8.808;2022-11-04T01:55:33;2.30;;;0.70;;
38725;SDS011;24474;48.906;8.808;2022-11-04T01:58:05;1.92;;;0.90;;
38725;SDS011;24474;48.906;8.808;2022-11-04T02:00:37;2.70;;;0.85;;
38725;SDS011;24474;48.906;8.808;2022-11-04T02:03:08;3.17;;;0.95;;
38725;SDS011;24474;48.906;8.808;2022-11-04T02:05:39;1.70;;;1.00;;
38725;SDS011;24474;48.906;8.808;2022-11-04T02:08:06;5.03;;;0.90;;
38725;SDS011;24474;48.906;8.808;2022-11-04T02:10:36;3.28;;;0.98;;
38725;SDS011;24474;48.906;8.808;2022-11-04T02:13:05;1.73;;;0.80;;
38725;SDS011;24474;48.906;8.808;2022-11-04T02:44:31;3.15;;;0.90;;
38725;SDS011;24474;48.906;8.808;2022-11-04T02:47:06;4.25;;;0.90;;
38725;SDS011;24474;48.906;8.808;2022-11-04T02:49:50;3.55;;;0.90;;
38725;SDS011;24474;48.906;8.808;2022-11-04T02:52:29;3.75;;;1.00;;
38725;SDS011;24474;48.906;8.808;2022-11-04T02:58:00;2.88;;;0.75;;
38725;SDS011;24474;48.906;8.808;2022-11-04T03:00:29;5.07;;;1.15;;
38725;SDS011;24474;48.906;8.808;2022-11-04T03:02:59;2.63;;;0.90;;
38725;SDS011;24474;48.906;8.808;2022-11-04T03:05:31;1.80;;;0.70;;
38725;SDS011;24474;48.906;8.808;2022-11-04T03:08:01;3.47;;;0.90;;
38725;SDS011;24474;48.906;8.808;2022-11-04T03:10:36;2.17;;;0.85;;
38725;SDS011;24474;48.906;8.808;2022-11-04T03:13:49;4.20;;;1.20;;
38725;SDS011;24474;48.906;8.808;2022-11-04T03:16:01;4.20;;;0.95;;
38725;SDS011;24474;48.906;8.808;2022-11-04T03:18:36;3.45;;;1.15;;
38725;SDS011;24474;48.906;8.808;2022-11-04T03:21:18;2.58;;;1.00;;
38725;SDS011;24474;48.906;8.808;2022-11-04T03:23:46;4.13;;;1.10;;
38725;SDS011;24474;48.906;8.808;2022-11-04T03:26:32;4.03;;;0.90;;
38725;SDS011;24474;48.906;8.808;2022-11-04T03:34:36;3.22;;;0.90;;
38725;SDS011;24474;48.906;8.808;2022-11-04T03:37:02;3.05;;;1.02;;
38725;SDS011;24474;48.906;8.808;2022-11-04T03:39:28;2.67;;;0.90;;
38725;SDS011;24474;48.906;8.808;2022-11-04T03:41:59;4.43;;;1.10;;
38725;SDS011;24474;48.906;8.808;2022-11-04T03:44:44;4.93;;;0.93;;
38725;SDS011;24474;48.906;8.808;2022-11-04T03:47:12;4.43;;;1.10;;
38725;SDS011;24474;48.906;8.808;2022-11-04T03:49:39;2.25;;;0.80;;
38725;SDS011;24474;48.906;8.808;2022-11-04T03:52:05;4.40;;;0.95;;
38725;SDS011;24474;48.906;8.808;2022-11-04T03:54:31;1.92;;;0.82;;
38725;SDS011;24474;48.906;8.808;2022-11-04T03:57:12;3.60;;;0.87;;
38725;SDS011;24474;48.906;8.808;2022-11-04T04:00:00;5.22;;;0.80;;
38725;SDS011;24474;48.906;8.808;2022-11-04T04:05:53;2.28;;;0.90;;
38725;SDS011;24474;48.906;8.808;2022-11-04T04:08:41;3.17;;;0.90;;
38725;SDS011;24474;48.906;8.808;2022-11-04T04:14:07;2.38;;;0.90;;
38725;SDS011;24474;48.906;8.808;2022-11-04T04:17:04;2.28;;;0.90;;
38725;SDS011;24474;48.906;8.808;2022-11-04T04:19:42;2.22;;;0.70;;
38725;SDS011;24474;48.906;8.808;2022-11-04T04:22:21;3.25;;;1.00;;
38725;SDS011;24474;48.906;8.808;2022-11-04T04:24:52;2.53;;;0.90;;
38725;SDS011;24474;48.906;8.808;2022-11-04T04:27:41;2.45;;;0.80;;
38725;SDS011;24474;48.906;8.808;2022-11-04T04:30:09;3.42;;;0.80;;
38725;SDS011;24474;48.906;8.808;2022-11-04T04:32:44;1.83;;;0.70;;
38725;SDS011;24474;48.906;8.808;2022-11-04T04:35:16;2.85;;;0.75;;
38725;SDS011;24474;48.906;8.808;2022-11-04T04:38:07;2.60;;;0.90;;
38725;SDS011;24474;48.906;8.808;2022-11-04T04:41:04;3.00;;;0.70;;
38725;SDS011;24474;48.906;8.808;2022-11-04T04:43:55;2.22;;;0.90;;
38725;SDS011;24474;48.906;8.808;2022-11-04T04:46:41;1.95;;;0.75;;
38725;SDS011;24474;48.906;8.808;2022-11-04T04:49:09;2.33;;;0.80;;
38725;SDS011;24474;48.906;8.808;2022-11-04T04:51:38;3.38;;;0.85;;
38725;SDS011;24474;48.906;8.808;2022-11-04T04:54:08;4.82;;;0.75;;
38725;SDS011;24474;48.906;8.808;2022-11-04T04:56:33;1.70;;;1.00;;
38725;SDS011;24474;48.906;8.808;2022-11-04T04:58:59;1.45;;;0.77;;
38725;SDS011;24474;48.906;8.808;2022-11-04T05:01:25;3.80;;;0.82;;
38725;SDS011;24474;48.906;8.808;2022-11-04T05:03:53;1.50;;;0.80;;
38725;SDS011;24474;48.906;8.808;2022-11-04T05:06:20;1.80;;;0.70;;
38725;SDS011;24474;48.906;8.808;2022-11-04T05:08:47;0.70;;;0.65;;
38725;SDS011;24474;48.906;8.808;2022-11-04T05:11:12;2.53;;;0.98;;
38725;SDS011;24474;48.906;8.808;2022-11-04T05:13:38;3.13;;;0.90;;
38725;SDS011;24474;48.906;8.808;2022-11-04T05:16:06;2.13;;;0.98;;
38725;SDS011;24474;48.906;8.808;2022-11-04T05:18:38;4.22;;;1.48;;
38725;SDS011;24474;48.906;8.808;2022-11-04T05:21:06;3.55;;;1.10;;
38725;SDS011;24474;48.906;8.808;2022-11-04T05:23:33;3.53;;;0.98;;
38725;SDS011;24474;48.906;8.808;2022-11-04T05:26:05;2.72;;;0.93;;
38725;SDS011;24474;48.906;8.808;2022-11-04T05:28:30;3.83;;;1.00;;
38725;SDS011;24474;48.906;8.808;2022-11-04T05:30:57;2.80;;;0.93;;
38725;SDS011;24474;48.906;8.808;2022-11-04T05:33:26;2.08;;;0.90;;
38725;SDS011;24474;48.906;8.808;2022-11-04T05:35:52;3.38;;;0.90;;
38725;SDS011;24474;48.906;8.808;2022-11-04T05:38:17;2.53;;;1.05;;
38725;SDS011;24474;48.906;8.808;2022-11-04T05:40:44;2.28;;;0.85;;
38725;SDS011;24474;48.906;8.808;2022-11-04T05:43:10;2.90;;;1.27;;
38725;SDS011;24474;48.906;8.808;2022-11-04T05:45:37;2.88;;;1.60;;
38725;SDS011;24474;48.906;8.808;2022-11-04T05:48:03;4.22;;;1.52;;
38725;SDS011;24474;48.906;8.808;2022-11-04T05:50:30;2.50;;;1.30;;
38725;SDS011;24474;48.906;8.808;2022-11-04T05:52:57;3.40;;;1.25;;
38725;SDS011;24474;48.906;8.808;2022-11-04T05:55:24;1.88;;;0.93;;
38725;SDS011;24474;48.906;8.808;2022-11-04T05:57:50;2.95;;;1.15;;
38725;SDS011;24474;48.906;8.808;2022-11-04T06:00:16;2.10;;;1.10;;
38725;SDS011;24474;48.906;8.808;2022-11-04T06:02:43;3.22;;;1.00;;
38725;SDS011;24474;48.906;8.808;2022-11-04T06:05:08;4.80;;;1.27;;
38725;SDS011;24474;48.906;8.808;2022-11-04T06:07:34;4.80;;;1.00;;
38725;SDS011;24474;48.906;8.808;2022-11-04T06:10:02;1.98;;;0.80;;
38725;SDS011;24474;48.906;8.808;2022-11-04T06:12:28;4.18;;;1.00;;
38725;SDS011;24474;48.906;8.808;2022-11-04T06:14:55;2.53;;;0.90;;
38725;SDS011;24474;48.906;8.808;2022-11-04T06:17:21;3.83;;;1.20;;
38725;SDS011;24474;48.906;8.808;2022-11-04T06:19:47;1.92;;;0.90;;
38725;SDS011;24474;48.906;8.808;2022-11-04T06:22:14;3.30;;;1.13;;
38725;SDS011;24474;48.906;8.808;2022-11-04T06:24:41;2.95;;;1.30;;
38725;SDS011;24474;48.906;8.808;2022-11-04T06:27:08;3.08;;;1.30;;
38725;SDS011;24474;48.906;8.808;2022-11-04T06:29:37;2.47;;;1.13;;
38725;SDS011;24474;48.906;8.808;2022-11-04T06:32:07;3.78;;;1.30;;
38725;SDS011;24474;48.906;8.808;2022-11-04T06:34:34;1.65;;;1.25;;
38725;SDS011;24474;48.906;8.808;2022-11-04T06:37:02;3.65;;;1.60;;
38725;SDS011;24474;48.906;8.808;2022-11-04T06:39:29;5.72;;;2.60;;
38725;SDS011;24474;48.906;8.808;2022-11-04T06:41:55;5.53;;;2.50;;
38725;SDS011;24474;48.906;8.808;2022-11-04T06:44:23;5.55;;;1.90;;
38725;SDS011;24474;48.906;8.808;2022-11-04T06:46:48;4.65;;;1.55;;
38725;SDS011;24474;48.906;8.808;2022-11-04T06:49:15;5.53;;;2.47;;
38725;SDS011;24474;48.906;8.808;2022-11-04T06:51:45;6.47;;;2.75;;
38725;SDS011;24474;48.906;8.808;2022-11-04T06:54:13;4.05;;;2.13;;
38725;SDS011;24474;48.906;8.808;2022-11-04T06:56:40;6.90;;;2.08;;
38725;SDS011;24474;48.906;8.808;2022-11-04T06:59:07;4.50;;;1.80;;
38725;SDS011;24474;48.906;8.808;2022-11-04T07:01:36;4.43;;;2.20;;
38725;SDS011;24474;48.906;8.808;2022-11-04T07:04:03;5.95;;;2.35;;
38725;SDS011;24474;48.906;8.808;2022-11-04T07:06:29;7.65;;;3.03;;
38725;SDS011;24474;48.906;8.808;2022-11-04T07:08:56;6.55;;;3.10;;
38725;SDS011;24474;48.906;8.808;2022-11-04T07:11:25;4.75;;;2.72;;
38725;SDS011;24474;48.906;8.808;2022-11-04T07:13:53;4.05;;;2.47;;
38725;SDS011;24474;48.906;8.808;2022-11-04T07:16:20;7.13;;;2.20;;
38725;SDS011;24474;48.906;8.808;2022-11-04T07:18:45;3.88;;;1.60;;
38725;SDS011;24474;48.906;8.808;2022-11-04T07:21:13;2.78;;;1.20;;
38725;SDS011;24474;48.906;8.808;2022-11-04T07:23:39;3.78;;;1.40;;
38725;SDS011;24474;48.906;8.808;2022-11-04T07:26:05;4.47;;;1.10;;
38725;SDS011;24474;48.906;8.808;2022-11-04T07:28:33;2.85;;;1.02;;
38725;SDS011;24474;48.906;8.808;2022-11-04T07:31:00;2.45;;;1.08;;
38725;SDS011;24474;48.906;8.808;2022-11-04T07:33:27;2.28;;;1.15;;
38725;SDS011;24474;48.906;8.808;2022-11-04T07:35:53;3.58;;;1.15;;
38725;SDS011;24474;48.906;8.808;2022-11-04T07:38:20;3.72;;;1.27;;
38725;SDS011;24474;48.906;8.808;2022-11-04T07:40:48;4.78;;;1.00;;
38725;SDS011;24474;48.906;8.808;2022-11-04T07:43:14;3.50;;;1.30;;
38725;SDS011;24474;48.906;8.808;2022-11-04T07:45:40;2.58;;;1.13;;
38725;SDS011;24474;48.906;8.808;2022-11-04T07:48:07;3.30;;;1.20;;
38725;SDS011;24474;48.906;8.808;2022-11-04T07:50:39;3.42;;;1.40;;
38725;SDS011;24474;48.906;8.808;2022-11-04T07:53:05;3.53;;;1.37;;
38725;SDS011;24474;48.906;8.808;2022-11-04T07:55:30;2.90;;;1.30;;
38725;SDS011;24474;48.906;8.808;2022-11-04T07:57:56;5.57;;;1.75;;
38725;SDS011;24474;48.906;8.808;2022-11-04T08:00:21;3.83;;;2.03;;
38725;SDS011;24474;48.906;8.808;2022-11-04T08:02:47;2.92;;;1.60;;
38725;SDS011;24474;48.906;8.808;2022-11-04T08:05:14;6.13;;;1.45;;
38725;SDS011;24474;48.906;8.808;2022-11-04T08:07:40;2.45;;;1.27;;
38725;SDS011;24474;48.906;8.808;2022-11-04T08:10:07;1.33;;;1.00;;
38725;SDS011;24474;48.906;8.808;2022-11-04T08:12:35;3.13;;;1.20;;
38725;SDS011;24474;48.906;8.808;2022-11-04T08:15:02;2.13;;;1.10;;
38725;SDS011;24474;48.906;8.808;2022-11-04T08:17:29;3.95;;;1.10;;
38725;SDS011;24474;48.906;8.808;2022-11-04T08:19:59;3.50;;;1.17;;
38725;SDS011;24474;48.906;8.808;2022-11-04T08:22:26;1.60;;;1.00;;
38725;SDS011;24474;48.906;8.808;2022-11-04T08:24:51;2.45;;;1.00;;
38725;SDS011;24474;48.906;8.808;2022-11-04T08:27:18;2.42;;;1.10;;
38725;SDS011;24474;48.906;8.808;2022-11-04T08:29:44;3.42;;;1.30;;
38725;SDS011;24474;48.906;8.808;2022-11-04T08:32:10;3.15;;;1.13;;
38725;SDS011;24474;48.906;8.808;2022-11-04T08:34:35;1.80;;;1.00;;
38725;SDS011;24474;48.906;8.808;2022-11-04T08:37:01;3.15;;;1.17;;
38725;SDS011;24474;48.906;8.808;2022-11-04T08:39:28;4.43;;;1.10;;
38725;SDS011;24474;48.906;8.808;2022-11-04T08:41:54;2.25;;;1.00;;
38725;SDS011;24474;48.906;8.808;2022-11-04T08:44:20;4.35;;;1.00;;
38725;SDS011;24474;48.906;8.808;2022-11-04T08:46:47;5.43;;;1.10;;
38725;SDS011;24474;48.906;8.808;2022-11-04T08:49:13;3.38;;;1.25;;
38725;SDS011;24474;48.906;8.808;2022-11-04T08:51:41;4.32;;;1.35;;
38725;SDS011;24474;48.906;8.808;2022-11-04T08:54:11;3.33;;;1.23;;
38725;SDS011;24474;48.906;8.808;2022-11-04T08:56:37;1.98;;;1.00;;
38725;SDS011;24474;48.906;8.808;2022-11-04T08:59:06;2.20;;;1.00;;
38725;SDS011;24474;48.906;8.808;2022-11-04T09:01:33;2.20;;;1.00;;
38725;SDS011;24474;48.906;8.808;2022-11-04T09:04:00;2.10;;;0.90;;
38725;SDS011;24474;48.906;8.808;2022-11-04T09:06:28;2.15;;;0.90;;
38725;SDS011;24474;48.906;8.808;2022-11-04T09:08:56;6.10;;;1.30;;
38725;SDS011;24474;48.906;8.808;2022-11-04T09:11:32;2.67;;;1.00;;
38725;SDS011;24474;48.906;8.808;2022-11-04T09:14:02;3.03;;;1.05;;
38725;SDS011;24474;48.906;8.808;2022-11-04T09:16:28;2.88;;;1.13;;
38725;SDS011;24474;48.906;8.808;2022-11-04T09:18:56;2.92;;;1.05;;
38725;SDS011;24474;48.906;8.808;2022-11-04T09:21:22;2.83;;;1.30;;
38725;SDS011;24474;48.906;8.808;2022-11-04T09:23:49;4.25;;;1.13;;
38725;SDS011;24474;48.906;8.808;2022-11-04T09:26:15;2.13;;;1.10;;
38725;SDS011;24474;48.906;8.808;2022-11-04T09:28:41;2.67;;;1.30;;
38725;SDS011;24474;48.906;8.808;2022-11-04T09:31:11;3.88;;;1.65;;
38725;SDS011;24474;48.906;8.808;2022-11-04T09:33:42;4.50;;;1.25;;
38725;SDS011;24474;48.906;8.808;2022-11-04T09:36:09;4.13;;;1.10;;
38725;SDS011;24474;48.906;8.808;2022-11-04T09:38:40;2.90;;;1.05;;
38725;SDS011;24474;48.906;8.808;2022-11-04T09:47:14;5.38;;;1.20;;
38725;SDS011;24474;48.906;8.808;2022-11-04T09:49:43;2.22;;;0.88;;
38725;SDS011;24474;48.906;8.808;2022-11-04T09:52:17;3.08;;;1.20;;
38725;SDS011;24474;48.906;8.808;2022-11-04T09:57:22;2.28;;;1.00;;
38725;SDS011;24474;48.906;8.808;2022-11-04T09:59:48;3.72;;;1.40;;
38725;SDS011;24474;48.906;8.808;2022-11-04T10:05:33;6.97;;;1.38;;
38725;SDS011;24474;48.906;8.808;2022-11-04T10:10:59;3.72;;;1.15;;
38725;SDS011;24474;48.906;8.808;2022-11-04T10:19:39;2.50;;;1.20;;
38725;SDS011;24474;48.906;8.808;2022-11-04T10:27:24;3.63;;;1.33;;
38725;SDS011;24474;48.906;8.808;2022-11-04T10:30:00;3.55;;;1.10;;
38725;SDS011;24474;48.906;8.808;2022-11-04T10:32:31;5.00;;;1.23;;
38725;SDS011;24474;48.906;8.808;2022-11-04T10:35:13;4.57;;;1.35;;
38725;SDS011;24474;48.906;8.808;2022-11-04T10:38:09;3.72;;;1.08;;
38725;SDS011;24474;48.906;8.808;2022-11-04T10:40:37;4.88;;;1.30;;
38725;SDS011;24474;48.906;8.808;2022-11-04T10:43:06;2.65;;;1.00;;
38725;SDS011;24474;48.906;8.808;2022-11-04T10:48:27;1.73;;;0.90;;
38725;SDS011;24474;48.906;8.808;2022-11-04T10:51:18;3.47;;;1.02;;
38725;SDS011;24474;48.906;8.808;2022-11-04T10:53:47;4.15;;;1.10;;
38725;SDS011;24474;48.906;8.808;2022-11-04T10:58:47;3.88;;;1.00;;
38725;SDS011;24474;48.906;8.808;2022-11-04T11:03:54;4.80;;;1.50;;
38725;SDS011;24474;48.906;8.808;2022-11-04T11:06:35;7.70;;;1.30;;
38725;SDS011;24474;48.906;8.808;2022-11-04T11:09:11;4.80;;;1.08;;
38725;SDS011;24474;48.906;8.808;2022-11-04T11:11:54;4.20;;;1.05;;
38725;SDS011;24474;48.906;8.808;2022-11-04T11:27:50;4.07;;;1.13;;
38725;SDS011;24474;48.906;8.808;2022-11-04T11:32:55;7.40;;;1.13;;
38725;SDS011;24474;48.906;8.808;2022-11-04T11:35:25;4.22;;;1.05;;
38725;SDS011;24474;48.906;8.808;2022-11-04T11:37:55;5.18;;;1.10;;
38725;SDS011;24474;48.906;8.808;2022-11-04T11:40:29;4.72;;;1.20;;
38725;SDS011;24474;48.906;8.808;2022-11-04T11:42:59;2.67;;;0.90;;
38725;SDS011;24474;48.906;8.808;2022-11-04T11:45:28;4.60;;;0.93;;
38725;SDS011;24474;48.906;8.808;2022-11-04T11:47:56;4.25;;;1.00;;
38725;SDS011;24474;48.906;8.808;2022-11-04T11:53:14;4.68;;;1.13;;
38725;SDS011;24474;48.906;8.808;2022-11-04T11:56:14;3.75;;;1.08;;
38725;SDS011;24474;48.906;8.808;2022-11-04T11:59:43;3.22;;;1.00;;
38725;SDS011;24474;48.906;8.808;2022-11-04T12:05:58;6.45;;;1.15;;
38725;SDS011;24474;48.906;8.808;2022-11-04T12:14:16;3.38;;;1.17;;
38725;SDS011;24474;48.906;8.808;2022-11-04T12:20:19;4.13;;;1.10;;
38725;SDS011;24474;48.906;8.808;2022-11-04T12:23:05;6.40;;;1.13;;
38725;SDS011;24474;48.906;8.808;2022-11-04T12:29:02;3.75;;;0.80;;
38725;SDS011;24474;48.906;8.808;2022-11-04T12:32:14;3.08;;;0.85;;
38725;SDS011;24474;48.906;8.808;2022-11-04T12:35:06;2.88;;;1.10;;
38725;SDS011;24474;48.906;8.808;2022-11-04T12:53:28;6.78;;;3.47;;
38725;SDS011;24474;48.906;8.808;2022-11-04T13:01:32;2.78;;;1.20;;
38725;SDS011;24474;48.906;8.808;2022-11-04T13:04:23;8.88;;;4.40;;
38725;SDS011;24474;48.906;8.808;2022-11-04T13:07:07;7.47;;;4.20;;
38725;SDS011;24474;48.906;8.808;2022-11-04T13:09:48;2.80;;;1.60;;
38725;SDS011;24474;48.906;8.808;2022-11-04T13:12:37;3.45;;;0.93;;
38725;SDS011;24474;48.906;8.808;2022-11-04T13:15:20;2.42;;;0.63;;
38725;SDS011;24474;48.906;8.808;2022-11-04T13:17:51;3.63;;;1.77;;
38725;SDS011;24474;48.906;8.808;2022-11-04T13:20:31;4.15;;;1.83;;
38725;SDS011;24474;48.906;8.808;2022-11-04T13:23:26;5.50;;;2.40;;
38725;SDS011;24474;48.906;8.808;2022-11-04T13:25:58;4.40;;;1.73;;
38725;SDS011;24474;48.906;8.808;2022-11-04T13:28:55;6.07;;;2.42;;
38725;SDS011;24474;48.906;8.808;2022-11-04T13:34:23;5.22;;;2.50;;
38725;SDS011;24474;48.906;8.808;2022-11-04T13:37:06;5.80;;;1.73;;
38725;SDS011;24474;48.906;8.808;2022-11-04T13:39:50;3.58;;;1.60;;
38725;SDS011;24474;48.906;8.808;2022-11-04T13:45:30;2.70;;;1.17;;
38725;SDS011;24474;48.906;8.808;2022-11-04T13:47:59;6.70;;;1.40;;
38725;SDS011;24474;48.906;8.808;2022-11-04T13:51:00;4.18;;;1.25;;
38725;SDS011;24474;48.906;8.808;2022-11-04T13:56:09;1.77;;;1.05;;
38725;SDS011;24474;48.906;8.808;2022-11-04T13:59:16;3.60;;;1.30;;
38725;SDS011;24474;48.906;8.808;2022-11-04T14:04:37;2.97;;;1.40;;
38725;SDS011;24474;48.906;8.808;2022-11-04T14:07:05;4.65;;;1.20;;
38725;SDS011;24474;48.906;8.808;2022-11-04T14:14:35;3.30;;;2.03;;
38725;SDS011;24474;48.906;8.808;2022-11-04T14:24:56;5.53;;;1.65;;
38725;SDS011;24474;48.906;8.808;2022-11-04T14:27:29;4.55;;;1.60;;
38725;SDS011;24474;48.906;8.808;2022-11-04T14:30:00;7.40;;;2.45;;
38725;SDS011;24474;48.906;8.808;2022-11-04T14:32:29;5.47;;;1.88;;
38725;SDS011;24474;48.906;8.808;2022-11-04T14:35:00;5.80;;;2.33;;
38725;SDS011;24474;48.906;8.808;2022-11-04T14:37:33;9.98;;;4.65;;
38725;SDS011;24474;48.906;8.808;2022-11-04T14:40:02;8.20;;;3.55;;
38725;SDS011;24474;48.906;8.808;2022-11-04T14:45:20;8.50;;;3.75;;
38725;SDS011;24474;48.906;8.808;2022-11-04T14:47:49;7.65;;;2.92;;
38725;SDS011;24474;48.906;8.808;2022-11-04T14:50:23;6.80;;;2.25;;
38725;SDS011;24474;48.906;8.808;2022-11-04T14:52:55;7.47;;;1.65;;
38725;SDS011;24474;48.906;8.808;2022-11-04T14:55:35;5.72;;;1.38;;
38725;SDS011;24474;48.906;8.808;2022-11-04T15:01:00;4.70;;;1.30;;
38725;SDS011;24474;48.906;8.808;2022-11-04T15:03:28;3.40;;;0.85;;
38725;SDS011;24474;48.906;8.808;2022-11-04T15:06:03;2.90;;;1.10;;
38725;SDS011;24474;48.906;8.808;2022-11-04T15:13:42;11.13;;;7.55;;
38725;SDS011;24474;48.906;8.808;2022-11-04T15:16:09;6.10;;;3.90;;
38725;SDS011;24474;48.906;8.808;2022-11-04T15:18:51;3.25;;;1.50;;
38725;SDS011;24474;48.906;8.808;2022-11-04T15:21:20;3.17;;;1.50;;
38725;SDS011;24474;48.906;8.808;2022-11-04T15:23:46;4.28;;;2.20;;
38725;SDS011;24474;48.906;8.808;2022-11-04T15:26:18;4.05;;;2.20;;
38725;SDS011;24474;48.906;8.808;2022-11-04T15:28:49;3.78;;;1.80;;
38725;SDS011;24474;48.906;8.808;2022-11-04T15:31:19;2.90;;;2.13;;
38725;SDS011;24474;48.906;8.808;2022-11-04T15:33:55;4.90;;;2.08;;
38725;SDS011;24474;48.906;8.808;2022-11-04T15:36:37;3.40;;;1.80;;
38725;SDS011;24474;48.906;8.808;2022-11-04T15:39:06;3.15;;;1.55;;
38725;SDS011;24474;48.906;8.808;2022-11-04T15:41:38;2.58;;;1.48;;
38725;SDS011;24474;48.906;8.808;2022-11-04T15:44:34;2.15;;;0.98;;
38725;SDS011;24474;48.906;8.808;2022-11-04T15:47:19;4.22;;;1.10;;
38725;SDS011;24474;48.906;8.808;2022-11-04T15:50:00;3.10;;;1.20;;
38725;SDS011;24474;48.906;8.808;2022-11-04T15:52:28;2.65;;;0.90;;
38725;SDS011;24474;48.906;8.808;2022-11-04T15:54:56;6.57;;;5.43;;
38725;SDS011;24474;48.906;8.808;2022-11-04T15:57:27;10.38;;;6.38;;
38725;SDS011;24474;48.906;8.808;2022-11-04T16:00:08;9.15;;;6.55;;
38725;SDS011;24474;48.906;8.808;2022-11-04T16:02:45;6.45;;;3.85;;
38725;SDS011;24474;48.906;8.808;2022-11-04T16:05:32;9.68;;;7.20;;
38725;SDS011;24474;48.906;8.808;2022-11-04T16:13:39;3.88;;;1.80;;
38725;SDS011;24474;48.906;8.808;2022-11-04T16:18:55;2.70;;;1.60;;
38725;SDS011;24474;48.906;8.808;2022-11-04T16:21:31;2.47;;;1.60;;
38725;SDS011;24474;48.906;8.808;2022-11-04T16:24:00;3.65;;;1.50;;
38725;SDS011;24474;48.906;8.808;2022-11-04T16:26:49;9.75;;;5.72;;
38725;SDS011;24474;48.906;8.808;2022-11-04T16:32:03;4.07;;;1.60;;
38725;SDS011;24474;48.906;8.808;2022-11-04T16:34:45;4.72;;;2.30;;
38725;SDS011;24474;48.906;8.808;2022-11-04T16:37:23;6.15;;;4.35;;
38725;SDS011;24474;48.906;8.808;2022-11-04T16:39:50;7.75;;;3.85;;
38725;SDS011;24474;48.906;8.808;2022-11-04T16:42:17;4.70;;;2.20;;
38725;SDS011;24474;48.906;8.808;2022-11-04T16:44:45;4.45;;;2.10;;
38725;SDS011;24474;48.906;8.808;2022-11-04T16:47:20;3.33;;;2.20;;
38725;SDS011;24474;48.906;8.808;2022-11-04T16:49:46;6.45;;;2.80;;
38725;SDS011;24474;48.906;8.808;2022-11-04T16:52:14;5.68;;;3.28;;
38725;SDS011;24474;48.906;8.808;2022-11-04T16:54:45;5.75;;;4.43;;
38725;SDS011;24474;48.906;8.808;2022-11-04T16:57:12;6.93;;;4.80;;
38725;SDS011;24474;48.906;8.808;2022-11-04T16:59:40;7.18;;;4.18;;
38725;SDS011;24474;48.906;8.808;2022-11-04T17:02:16;6.25;;;3.25;;
38725;SDS011;24474;48.906;8.808;2022-11-04T17:04:57;7.53;;;3.50;;
38725;SDS011;24474;48.906;8.808;2022-11-04T17:07:25;4.63;;;3.38;;
38725;SDS011;24474;48.906;8.808;2022-11-04T17:09:51;3.88;;;2.97;;
38725;SDS011;24474;48.906;8.808;2022-11-04T17:12:18;5.15;;;3.15;;
38725;SDS011;24474;48.906;8.808;2022-11-04T17:14:44;5.15;;;3.10;;
38725;SDS011;24474;48.906;8.808;2022-11-04T17:17:10;6.03;;;3.60;;
38725;SDS011;24474;48.906;8.808;2022-11-04T17:19:36;6.85;;;3.80;;
38725;SDS011;24474;48.906;8.808;2022-11-04T17:22:06;5.47;;;3.47;;
38725;SDS011;24474;48.906;8.808;2022-11-04T17:24:34;6.95;;;3.70;;
38725;SDS011;24474;48.906;8.808;2022-11-04T17:27:01;5.45;;;3.28;;
38725;SDS011;24474;48.906;8.808;2022-11-04T17:29:27;6.03;;;3.70;;
38725;SDS011;24474;48.906;8.808;2022-11-04T17:31:56;7.85;;;4.30;;
38725;SDS011;24474;48.906;8.808;2022-11-04T17:34:23;7.97;;;4.43;;
38725;SDS011;24474;48.906;8.808;2022-11-04T17:36:50;8.82;;;4.50;;
38725;SDS011;24474;48.906;8.808;2022-11-04T17:39:18;12.00;;;7.47;;
38725;SDS011;24474;48.906;8.808;2022-11-04T17:41:45;12.80;;;7.70;;
38725;SDS011;24474;48.906;8.808;2022-11-04T17:44:31;10.48;;;7.10;;
38725;SDS011;24474;48.906;8.808;2022-11-04T17:46:59;9.77;;;6.93;;
38725;SDS011;24474;48.906;8.808;2022-11-04T17:49:26;10.40;;;6.90;;
38725;SDS011;24474;48.906;8.808;2022-11-04T17:51:54;10.85;;;7.07;;
38725;SDS011;24474;48.906;8.808;2022-11-04T17:54:22;11.32;;;6.97;;
38725;SDS011;24474;48.906;8.808;2022-11-04T17:56:49;12.35;;;8.10;;
38725;SDS011;24474;48.906;8.808;2022-11-04T17:59:15;12.68;;;6.85;;
38725;SDS011;24474;48.906;8.808;2022-11-04T18:01:41;9.82;;;6.50;;
38725;SDS011;24474;48.906;8.808;2022-11-04T18:04:11;8.60;;;6.15;;
38725;SDS011;24474;48.906;8.808;2022-11-04T18:06:38;9.23;;;7.07;;
38725;SDS011;24474;48.906;8.808;2022-11-04T18:09:05;14.15;;;10.13;;
38725;SDS011;24474;48.906;8.808;2022-11-04T18:11:34;12.95;;;9.10;;
38725;SDS011;24474;48.906;8.808;2022-11-04T18:14:22;11.50;;;8.20;;
38725;SDS011;24474;48.906;8.808;2022-11-04T18:16:49;10.95;;;7.97;;
38725;SDS011;24474;48.906;8.808;2022-11-04T18:19:16;13.13;;;7.88;;